createdAt,value
2022-12-08T00:00:42.722Z,53775.61
2022-12-08T00:01:45.901Z,53731.51
2022-12-08T00:02:48.738Z,53734.52
2022-12-08T00:03:51.564Z,53760.57
2022-12-08T00:04:54.444Z,53722.49
2022-12-08T00:05:57.224Z,53646.32
2022-12-08T00:07:00.078Z,53757.57
2022-12-08T00:08:03.119Z,53773.60
2022-12-08T00:09:06.433Z,53727.50
2022-12-08T00:10:39.667Z,53616.25
2022-12-08T00:11:13.925Z,53526.06
2022-12-08T00:12:17.624Z,53522.05
2022-12-08T00:13:20.597Z,53464.93
2022-12-08T00:14:23.697Z,53354.69
2022-12-08T00:15:26.870Z,53336.65
2022-12-08T00:16:30.059Z,53448.89
2022-12-08T00:17:32.909Z,53424.84
2022-12-08T00:18:36.422Z,53330.64
2022-12-08T00:19:39.390Z,53330.64
2022-12-08T00:20:42.253Z,53358.70
2022-12-08T00:21:45.436Z,53501.00
2022-12-08T00:22:48.633Z,53470.94
2022-12-08T00:23:51.737Z,53477.95
2022-12-08T00:24:54.885Z,53363.71
2022-12-08T00:25:58.193Z,53240.45
2022-12-08T00:27:01.346Z,53156.27
2022-12-08T00:28:04.731Z,53199.36
2022-12-08T00:29:09.984Z,53265.50
2022-12-08T00:30:12.319Z,53308.59
2022-12-08T00:31:15.708Z,53241.45
2022-12-08T00:32:18.710Z,53258.49
2022-12-08T00:33:21.667Z,53230.43
2022-12-08T00:34:24.767Z,53217.40
2022-12-08T00:35:27.739Z,53209.38
2022-12-08T00:36:30.705Z,53233.43
2022-12-08T00:37:33.678Z,53210.39
2022-12-08T00:38:37.687Z,53174.31
2022-12-08T00:39:41.171Z,53199.36
2022-12-08T00:40:44.239Z,53149.26
2022-12-08T00:41:48.462Z,53144.25
2022-12-08T00:42:51.641Z,53058.07
2022-12-08T00:43:54.502Z,53048.05
2022-12-08T00:44:57.279Z,53038.03
2022-12-08T00:46:00.565Z,53054.06
2022-12-08T00:47:03.552Z,53110.18
2022-12-08T00:48:06.523Z,53156.27
2022-12-08T00:49:09.828Z,53195.36
2022-12-08T00:50:12.679Z,53292.56
2022-12-08T00:51:17.018Z,53320.62
2022-12-08T00:52:20.069Z,53239.45
2022-12-08T00:53:22.747Z,53250.47
2022-12-08T00:54:25.719Z,53205.37
2022-12-08T00:55:28.995Z,53214.39
2022-12-08T00:56:32.492Z,53213.39
2022-12-08T00:57:35.372Z,53214.39
2022-12-08T00:58:38.558Z,53174.31
2022-12-08T00:59:41.946Z,53150.26
2022-12-08T01:00:45.075Z,53187.34
2022-12-08T01:01:48.098Z,53096.15
2022-12-08T01:02:51.036Z,53094.14
2022-12-08T01:03:53.942Z,53116.19
2022-12-08T01:04:57.538Z,53055.07
2022-12-08T01:06:00.621Z,53085.13
2022-12-08T01:07:03.800Z,53098.15
2022-12-08T01:08:07.189Z,53114.19
2022-12-08T01:09:10.151Z,53105.17
2022-12-08T01:10:12.929Z,53074.11
2022-12-08T01:11:16.016Z,53102.16
2022-12-08T01:12:19.088Z,53105.17
2022-12-08T01:13:21.860Z,53082.12
2022-12-08T01:14:24.929Z,53040.04
2022-12-08T01:15:28.428Z,53022.00
2022-12-08T01:16:31.633Z,53035.02
2022-12-08T01:17:35.098Z,53090.14
2022-12-08T01:18:37.981Z,53112.18
2022-12-08T01:19:41.259Z,53108.17
2022-12-08T01:20:44.437Z,53077.11
2022-12-08T01:21:47.630Z,53082.12
2022-12-08T01:22:51.028Z,53114.19
2022-12-08T01:23:54.205Z,53031.02
2022-12-08T01:24:57.070Z,53055.07
2022-12-08T01:26:00.252Z,53066.09
2022-12-08T01:27:03.323Z,53068.09
2022-12-08T01:28:06.301Z,53074.11
2022-12-08T01:29:10.104Z,53038.03
2022-12-08T01:30:12.968Z,53073.10
2022-12-08T01:31:16.486Z,53086.13
2022-12-08T01:32:20.570Z,53057.07
2022-12-08T01:33:23.641Z,53056.07
2022-12-08T01:34:27.146Z,53072.10
2022-12-08T01:35:31.023Z,53016.99
2022-12-08T01:36:34.126Z,53099.16
2022-12-08T01:37:37.192Z,53072.10
2022-12-08T01:38:40.166Z,53051.06
2022-12-08T01:39:43.447Z,53026.01
2022-12-08T01:40:46.950Z,53024.00
2022-12-08T01:41:49.925Z,53011.98
2022-12-08T01:42:52.889Z,53036.03
2022-12-08T01:43:56.083Z,53057.07
2022-12-08T01:44:59.567Z,53051.06
2022-12-08T01:46:03.012Z,53032.02
2022-12-08T01:47:06.032Z,53053.06
2022-12-08T01:48:09.375Z,53036.03
2022-12-08T01:49:14.361Z,53050.05
2022-12-08T01:50:23.648Z,53027.01
2022-12-08T01:51:26.536Z,53051.06
2022-12-08T01:52:29.642Z,53076.11
2022-12-08T01:53:32.805Z,53049.05
2022-12-08T01:54:35.583Z,53098.15
2022-12-08T01:55:38.259Z,53062.08
2022-12-08T01:56:41.218Z,53063.08
2022-12-08T01:57:43.893Z,53031.02
2022-12-08T01:58:46.763Z,53050.05
2022-12-08T01:59:49.536Z,53033.02
2022-12-08T02:00:52.497Z,53027.01
2022-12-08T02:01:55.455Z,53048.05
2022-12-08T02:02:58.499Z,53044.04
2022-12-08T02:04:01.444Z,53053.06
2022-12-08T02:05:04.219Z,53029.01
2022-12-08T02:06:07.011Z,53050.05
2022-12-08T02:07:09.981Z,53051.06
2022-12-08T02:08:12.881Z,53074.11
2022-12-08T02:09:15.822Z,53040.04
2022-12-08T02:10:18.763Z,53066.09
2022-12-08T02:11:21.671Z,53046.05
2022-12-08T02:12:24.548Z,53050.05
2022-12-08T02:13:27.846Z,53024.00
2022-12-08T02:14:30.603Z,53019.99
2022-12-08T02:15:33.635Z,53018.99
2022-12-08T02:16:36.759Z,53018.99
2022-12-08T02:17:39.838Z,53076.11
2022-12-08T02:18:42.933Z,53044.04
2022-12-08T02:19:46.101Z,53055.07
2022-12-08T02:20:49.192Z,53056.07
2022-12-08T02:21:53.610Z,53012.98
2022-12-08T02:22:57.501Z,53042.04
2022-12-08T02:24:00.565Z,53059.07
2022-12-08T02:25:03.965Z,53038.03
2022-12-08T02:26:06.744Z,53035.02
2022-12-08T02:27:09.913Z,53085.13
2022-12-08T02:28:13.399Z,53024.00
2022-12-08T02:29:16.295Z,52999.95
2022-12-08T02:30:19.038Z,53023.00
2022-12-08T02:31:22.854Z,53057.07
2022-12-08T02:32:26.131Z,53078.11
2022-12-08T02:33:29.423Z,53062.08
2022-12-08T02:34:32.190Z,53055.07
2022-12-08T02:35:36.294Z,53049.05
2022-12-08T02:36:39.478Z,53066.09
2022-12-08T02:37:44.633Z,53034.02
2022-12-08T02:38:47.485Z,53047.05
2022-12-08T02:39:53.829Z,53032.02
2022-12-08T02:40:57.433Z,53044.04
2022-12-08T02:42:00.538Z,53048.05
2022-12-08T02:43:03.469Z,53013.98
2022-12-08T02:44:06.443Z,53036.03
2022-12-08T02:45:09.321Z,53022.00
2022-12-08T02:46:12.379Z,53021.00
2022-12-08T02:47:15.587Z,53036.03
2022-12-08T02:48:18.874Z,53022.00
2022-12-08T02:49:21.744Z,52989.93
2022-12-08T02:50:24.746Z,53021.00
2022-12-08T02:51:27.905Z,52997.95
2022-12-08T02:52:30.669Z,52992.94
2022-12-08T02:53:33.808Z,53006.97
2022-12-08T02:54:36.530Z,53067.09
2022-12-08T02:55:39.506Z,53032.02
2022-12-08T02:56:43.210Z,53030.02
2022-12-08T02:57:46.701Z,53050.05
2022-12-08T02:58:49.981Z,53002.96
2022-12-08T02:59:53.973Z,53001.96
2022-12-08T03:00:56.948Z,53028.01
2022-12-08T03:01:59.866Z,53021.00
2022-12-08T03:03:02.850Z,53019.99
2022-12-08T03:04:05.606Z,53029.01
2022-12-08T03:05:09.569Z,53064.08
2022-12-08T03:06:13.171Z,53098.15
2022-12-08T03:07:16.245Z,53054.06
2022-12-08T03:08:19.939Z,53054.06
2022-12-08T03:09:23.151Z,53051.06
2022-12-08T03:10:26.023Z,53022.00
2022-12-08T03:11:29.805Z,53053.06
2022-12-08T03:12:32.768Z,53034.02
2022-12-08T03:13:35.829Z,53047.05
2022-12-08T03:14:40.060Z,53070.10
2022-12-08T03:15:43.793Z,53058.07
2022-12-08T03:16:46.947Z,53028.01
2022-12-08T03:17:49.907Z,53015.98
2022-12-08T03:18:53.809Z,53035.02
2022-12-08T03:19:56.783Z,53039.03
2022-12-08T03:20:59.770Z,53022.00
2022-12-08T03:22:02.856Z,52990.93
2022-12-08T03:23:05.813Z,53024.00
2022-12-08T03:24:08.826Z,53007.97
2022-12-08T03:25:11.996Z,53011.98
2022-12-08T03:26:14.750Z,53032.02
2022-12-08T03:27:20.289Z,53019.99
2022-12-08T03:28:23.267Z,53011.98
2022-12-08T03:29:26.355Z,53044.04
2022-12-08T03:30:29.735Z,53011.98
2022-12-08T03:31:33.330Z,53024.00
2022-12-08T03:32:36.523Z,53015.98
2022-12-08T03:33:43.481Z,53038.03
2022-12-08T03:34:46.657Z,53055.07
2022-12-08T03:35:49.834Z,53025.00
2022-12-08T03:36:53.546Z,53027.01
2022-12-08T03:37:57.039Z,53042.04
2022-12-08T03:38:59.795Z,52993.94
2022-12-08T03:40:03.437Z,53046.05
2022-12-08T03:41:06.885Z,53018.99
2022-12-08T03:42:10.474Z,52994.94
2022-12-08T03:43:13.871Z,53007.97
2022-12-08T03:44:17.351Z,53030.02
2022-12-08T03:45:20.009Z,53040.04
2022-12-08T03:47:26.783Z,53032.02
2022-12-08T03:48:29.756Z,52999.95
2022-12-08T03:49:32.964Z,53028.01
2022-12-08T03:50:35.726Z,52992.94
2022-12-08T03:51:38.586Z,52989.93
2022-12-08T03:52:42.506Z,53012.98
2022-12-08T03:53:46.407Z,53001.96
2022-12-08T03:54:49.868Z,53004.96
2022-12-08T03:55:52.875Z,52995.95
2022-12-08T03:56:56.253Z,53027.01
2022-12-08T03:57:59.311Z,52994.94
2022-12-08T03:59:06.554Z,53016.99
2022-12-08T04:00:09.681Z,53007.97
2022-12-08T04:01:12.653Z,52993.94
2022-12-08T04:03:39.288Z,53030.02
2022-12-08T04:04:43.508Z,52977.91
2022-12-08T04:05:46.530Z,52989.93
2022-12-08T04:06:49.457Z,52986.93
2022-12-08T04:07:52.925Z,52997.95
2022-12-08T04:08:55.735Z,53007.97
2022-12-08T04:09:58.809Z,53022.00
2022-12-08T04:11:01.791Z,53015.98
2022-12-08T04:12:12.732Z,53003.96
2022-12-08T04:13:16.417Z,53005.96
2022-12-08T04:14:19.822Z,52961.87
2022-12-08T04:15:23.088Z,52957.87
2022-12-08T04:16:27.691Z,52986.93
2022-12-08T04:17:33.571Z,52941.84
2022-12-08T04:19:57.371Z,52990.93
2022-12-08T04:21:00.839Z,52983.92
2022-12-08T04:22:10.274Z,52996.95
2022-12-08T04:23:13.451Z,52977.91
2022-12-08T04:24:16.521Z,52991.94
2022-12-08T04:25:19.685Z,52967.89
2022-12-08T04:26:22.451Z,53005.96
2022-12-08T04:27:25.485Z,52995.95
2022-12-08T04:28:28.838Z,52986.93
2022-12-08T04:29:32.414Z,52984.92
2022-12-08T04:30:41.785Z,52945.84
2022-12-08T04:31:44.548Z,52955.86
2022-12-08T04:32:47.681Z,52979.91
2022-12-08T04:33:51.006Z,52948.85
2022-12-08T04:34:54.781Z,52982.92
2022-12-08T04:35:58.276Z,53038.03
2022-12-08T04:37:04.130Z,52986.93
2022-12-08T04:39:27.288Z,53015.98
2022-12-08T04:40:31.495Z,52983.92
2022-12-08T04:41:34.968Z,52950.85
2022-12-08T04:42:45.644Z,52966.89
2022-12-08T04:43:48.404Z,52963.88
2022-12-08T04:44:51.465Z,52987.93
2022-12-08T04:46:00.970Z,52958.87
2022-12-08T04:47:03.690Z,52990.93
2022-12-08T04:48:06.710Z,52966.89
2022-12-08T04:49:09.745Z,52961.87
2022-12-08T04:50:13.124Z,52971.89
2022-12-08T04:51:15.999Z,52989.93
2022-12-08T04:52:19.496Z,52989.93
2022-12-08T04:53:26.139Z,52972.90
2022-12-08T04:54:29.431Z,52961.87
2022-12-08T04:55:38.346Z,52947.85
2022-12-08T04:56:41.437Z,52972.90
2022-12-08T04:57:44.507Z,52982.92
2022-12-08T04:58:47.682Z,52957.87
2022-12-08T04:59:50.984Z,52962.88
2022-12-08T05:00:54.331Z,52969.89
2022-12-08T05:01:57.568Z,52967.89
2022-12-08T05:03:01.029Z,52969.89
2022-12-08T05:04:04.318Z,52991.94
2022-12-08T05:05:08.037Z,52940.83
2022-12-08T05:06:10.905Z,52977.91
2022-12-08T05:07:14.593Z,52967.89
2022-12-08T05:08:19.349Z,53004.96
2022-12-08T05:09:37.796Z,52974.90
2022-12-08T05:10:40.628Z,52973.90
2022-12-08T05:13:05.150Z,52962.88
2022-12-08T05:14:08.322Z,53009.97
2022-12-08T05:15:11.460Z,52991.94
2022-12-08T05:16:20.252Z,53012.98
2022-12-08T05:17:25.404Z,52984.92
2022-12-08T05:18:31.962Z,53005.96
2022-12-08T05:19:35.058Z,52991.94
2022-12-08T05:20:38.732Z,52961.87
2022-12-08T05:21:41.705Z,53009.97
2022-12-08T05:22:44.694Z,52990.93
2022-12-08T05:23:47.686Z,52994.94
2022-12-08T05:24:50.683Z,53018.99
2022-12-08T05:25:53.826Z,52988.93
2022-12-08T05:26:57.424Z,52977.91
2022-12-08T05:28:24.599Z,53002.96
2022-12-08T05:29:06.659Z,53013.98
2022-12-08T05:30:09.753Z,52971.89
2022-12-08T05:31:12.711Z,52994.94
2022-12-08T05:32:26.140Z,52985.92
2022-12-08T05:34:52.061Z,52997.95
2022-12-08T05:35:56.012Z,52984.92
2022-12-08T05:36:59.951Z,52995.95
2022-12-08T05:38:03.046Z,53008.97
2022-12-08T05:39:06.328Z,53015.98
2022-12-08T05:40:09.399Z,53008.97
2022-12-08T05:41:12.089Z,52975.91
2022-12-08T05:42:16.721Z,53006.97
2022-12-08T05:43:22.121Z,52957.87
2022-12-08T05:44:25.110Z,52985.92
2022-12-08T05:45:30.671Z,52981.92
2022-12-08T05:46:37.599Z,53002.96
2022-12-08T05:47:41.018Z,52995.95
2022-12-08T05:48:44.288Z,53008.97
2022-12-08T05:49:47.887Z,52999.95
2022-12-08T05:50:50.974Z,53028.01
2022-12-08T05:51:53.812Z,52978.91
2022-12-08T05:52:56.809Z,53001.96
2022-12-08T05:54:02.340Z,53043.04
2022-12-08T05:55:05.611Z,52982.92
2022-12-08T05:56:08.506Z,52984.92
2022-12-08T05:57:17.424Z,53002.96
2022-12-08T05:58:20.706Z,53015.98
2022-12-08T05:59:23.681Z,53038.03
2022-12-08T06:01:47.154Z,53044.04
2022-12-08T06:03:04.988Z,53017.99
2022-12-08T06:04:21.609Z,53042.04
2022-12-08T06:05:25.357Z,53042.04
2022-12-08T06:06:28.362Z,53012.98
2022-12-08T06:07:39.615Z,53051.06
2022-12-08T06:08:43.016Z,53067.09
2022-12-08T06:11:13.881Z,53026.01
2022-12-08T06:14:53.900Z,53005.96
2022-12-08T06:16:00.874Z,52981.92
2022-12-08T06:17:08.846Z,53035.02
2022-12-08T06:18:19.421Z,53040.04
2022-12-08T06:19:30.380Z,53024.00
2022-12-08T06:22:06.687Z,52993.94
2022-12-08T06:23:10.026Z,53005.96
2022-12-08T06:24:17.399Z,53025.00
2022-12-08T06:25:20.800Z,53024.00
2022-12-08T06:26:25.434Z,52982.92
2022-12-08T06:27:28.697Z,53025.00
2022-12-08T06:28:34.448Z,52982.92
2022-12-08T06:29:41.410Z,53032.02
2022-12-08T06:30:56.370Z,53042.04
2022-12-08T06:33:30.684Z,52990.93
2022-12-08T06:34:39.998Z,52985.92
2022-12-08T06:35:50.365Z,53007.97
2022-12-08T06:36:53.340Z,53036.03
2022-12-08T06:38:00.605Z,52983.92
2022-12-08T06:39:03.288Z,53017.99
2022-12-08T06:40:14.499Z,53046.05
2022-12-08T06:41:20.609Z,52992.94
2022-12-08T06:42:24.914Z,53002.96
2022-12-08T06:43:28.202Z,52989.93
2022-12-08T06:45:56.654Z,52986.93
2022-12-08T06:47:02.565Z,53001.96
2022-12-08T06:49:36.431Z,53019.99
2022-12-08T06:50:41.250Z,52997.95
2022-12-08T06:51:44.647Z,52998.95
2022-12-08T06:53:01.009Z,52985.92
2022-12-08T06:56:36.902Z,52995.95
2022-12-08T06:57:43.974Z,53043.04
2022-12-08T06:58:52.472Z,53039.03
2022-12-08T07:00:04.584Z,52992.94
2022-12-08T07:01:09.076Z,52988.93
2022-12-08T07:02:15.484Z,53002.96
2022-12-08T07:03:26.142Z,53004.96
2022-12-08T07:04:37.370Z,53030.02
2022-12-08T07:05:40.441Z,52989.93
2022-12-08T07:06:47.957Z,53015.98
2022-12-08T07:07:51.363Z,52997.95
2022-12-08T07:08:56.450Z,53042.04
2022-12-08T07:10:02.774Z,53021.00
2022-12-08T07:11:17.995Z,53026.01
2022-12-08T07:12:17.369Z,53040.04
2022-12-08T07:13:20.785Z,53031.02
2022-12-08T07:14:24.920Z,53011.98
2022-12-08T07:15:27.742Z,53000.95
2022-12-08T07:16:31.299Z,53016.99
2022-12-08T07:17:34.498Z,53030.02
2022-12-08T07:18:37.690Z,53048.05
2022-12-08T07:19:42.091Z,53056.07
2022-12-08T07:20:53.882Z,53052.06
2022-12-08T07:23:22.169Z,53060.07
2022-12-08T07:24:25.432Z,53019.99
2022-12-08T07:25:28.450Z,53041.04
2022-12-08T07:26:34.891Z,53026.01
2022-12-08T07:27:37.662Z,53053.06
2022-12-08T07:28:42.144Z,53030.02
2022-12-08T07:29:44.809Z,53034.02
2022-12-08T07:30:47.868Z,53059.07
2022-12-08T07:31:51.284Z,53006.97
2022-12-08T07:32:54.366Z,53046.05
2022-12-08T07:33:57.330Z,53022.00
2022-12-08T07:35:00.120Z,53016.99
2022-12-08T07:36:03.943Z,53018.99
2022-12-08T07:37:08.544Z,53066.09
2022-12-08T07:38:11.494Z,53032.02
2022-12-08T07:39:14.800Z,53046.05
2022-12-08T07:40:17.926Z,53041.04
2022-12-08T07:41:23.236Z,53033.02
2022-12-08T07:42:29.017Z,53035.02
2022-12-08T07:44:52.502Z,53045.04
2022-12-08T07:45:55.719Z,53039.03
2022-12-08T07:47:01.224Z,53051.06
2022-12-08T07:48:05.442Z,53058.07
2022-12-08T07:49:08.400Z,53040.04
2022-12-08T07:50:11.790Z,53048.05
2022-12-08T07:52:39.573Z,53012.98
2022-12-08T07:53:43.421Z,53016.99
2022-12-08T07:54:49.315Z,53072.10
2022-12-08T07:55:52.472Z,53047.05
2022-12-08T07:56:55.847Z,53030.02
2022-12-08T07:58:09.101Z,53047.05
2022-12-08T07:59:12.118Z,53030.02
2022-12-08T08:00:15.942Z,53043.04
2022-12-08T08:01:27.215Z,53045.04
2022-12-08T08:02:30.592Z,53045.04
2022-12-08T08:03:35.949Z,53048.05
2022-12-08T08:04:39.209Z,53068.09
2022-12-08T08:05:51.572Z,53061.08
2022-12-08T08:06:55.023Z,53088.13
2022-12-08T08:09:34.986Z,53030.02
2022-12-08T08:10:41.414Z,53064.08
2022-12-08T08:12:01.130Z,53047.05
2022-12-08T08:14:09.609Z,53038.03
2022-12-08T08:16:40.659Z,53065.09
2022-12-08T08:17:43.631Z,53059.07
2022-12-08T08:18:47.641Z,53038.03
2022-12-08T08:19:51.312Z,53068.09
2022-12-08T08:20:55.536Z,53036.03
2022-12-08T08:21:58.820Z,53049.05
2022-12-08T08:23:02.803Z,53070.10
2022-12-08T08:24:06.331Z,53065.09
2022-12-08T08:25:09.693Z,53061.08
2022-12-08T08:26:14.626Z,53073.10
2022-12-08T08:27:21.879Z,53058.07
2022-12-08T08:28:27.732Z,53075.11
2022-12-08T08:29:37.576Z,53058.07
2022-12-08T08:30:43.574Z,53068.09
2022-12-08T08:31:48.597Z,53044.04
2022-12-08T08:32:52.407Z,53069.09
2022-12-08T08:34:04.737Z,53089.14
2022-12-08T08:35:08.455Z,53098.15
2022-12-08T08:36:21.564Z,53092.14
2022-12-08T08:37:44.325Z,53092.14
2022-12-08T08:38:48.450Z,53109.18
2022-12-08T08:39:54.339Z,53130.22
2022-12-08T08:42:24.355Z,53090.14
2022-12-08T08:43:38.609Z,53092.14
2022-12-08T08:44:56.112Z,53084.12
2022-12-08T08:46:10.824Z,53095.15
2022-12-08T08:47:16.791Z,53078.11
2022-12-08T08:48:22.361Z,53102.16
2022-12-08T08:49:38.132Z,53083.13
2022-12-08T08:50:42.336Z,53116.19
2022-12-08T08:51:53.709Z,53084.12
2022-12-08T08:53:03.101Z,53103.16
2022-12-08T08:54:22.503Z,53136.23
2022-12-08T08:56:55.272Z,53120.20
2022-12-08T08:59:31.147Z,53142.25
2022-12-08T09:00:41.088Z,53137.23
2022-12-08T09:03:06.801Z,53154.27
2022-12-08T09:04:25.312Z,53136.23
2022-12-08T09:05:44.046Z,53122.20
2022-12-08T09:08:18.680Z,53150.26
2022-12-08T09:10:43.543Z,53162.29
2022-12-08T09:11:47.721Z,53170.30
2022-12-08T09:13:02.300Z,53136.23
2022-12-08T09:15:26.229Z,53151.26
2022-12-08T09:16:29.952Z,53120.20
2022-12-08T09:17:38.639Z,53146.25
2022-12-08T09:18:42.134Z,53157.28
2022-12-08T09:21:11.740Z,53146.25
2022-12-08T09:22:15.230Z,53131.22
2022-12-08T09:23:35.643Z,53164.29
2022-12-08T09:24:51.923Z,53113.18
2022-12-08T09:25:55.201Z,53115.19
2022-12-08T09:27:00.955Z,53142.25
2022-12-08T09:28:04.060Z,53167.30
2022-12-08T09:30:29.209Z,53160.28
2022-12-08T09:31:43.147Z,53142.25
2022-12-08T09:32:46.561Z,53112.18
2022-12-08T09:34:00.899Z,53165.29
2022-12-08T09:36:31.813Z,53165.29
2022-12-08T09:37:36.129Z,53177.32
2022-12-08T09:38:46.161Z,53212.39
2022-12-08T09:39:52.115Z,53206.38
2022-12-08T09:42:33.365Z,53180.32
2022-12-08T09:43:36.891Z,53185.34
2022-12-08T09:44:50.230Z,53200.37
2022-12-08T09:46:04.207Z,53178.32
2022-12-08T09:48:35.796Z,53188.34
2022-12-08T09:51:02.848Z,53213.39
2022-12-08T09:56:09.212Z,53162.29
2022-12-08T09:57:28.769Z,53197.36
2022-12-08T10:01:27.085Z,53179.32
2022-12-08T10:05:14.512Z,53221.41
2022-12-08T10:07:39.013Z,53216.40
2022-12-08T10:08:51.808Z,53235.44
2022-12-08T10:09:57.153Z,53212.39
2022-12-08T10:12:29.621Z,53158.28
2022-12-08T10:15:01.008Z,53198.36
2022-12-08T10:16:06.721Z,53152.27
2022-12-08T10:19:52.917Z,53199.36
2022-12-08T10:20:59.184Z,53177.32
2022-12-08T10:22:02.361Z,53139.24
2022-12-08T10:23:07.705Z,53154.27
2022-12-08T10:24:13.044Z,53150.26
2022-12-08T10:25:21.931Z,53169.30
2022-12-08T10:26:30.016Z,53145.25
2022-12-08T10:29:10.440Z,53140.24
2022-12-08T10:30:14.811Z,53156.27
2022-12-08T10:31:20.654Z,53142.25
2022-12-08T10:32:26.795Z,53173.31
2022-12-08T10:33:36.757Z,53151.26
2022-12-08T10:34:46.890Z,53175.31
2022-12-08T10:37:10.451Z,53157.28
2022-12-08T10:39:53.165Z,53163.29
2022-12-08T10:43:38.663Z,53222.41
2022-12-08T10:44:42.655Z,53219.41
2022-12-08T10:45:45.845Z,53246.46
2022-12-08T10:47:00.601Z,53217.40
2022-12-08T10:48:03.976Z,53206.38
2022-12-08T10:49:07.004Z,53220.41
2022-12-08T10:51:34.011Z,53196.36
2022-12-08T10:54:02.296Z,53248.46
2022-12-08T10:55:12.411Z,53246.46
2022-12-08T10:56:16.454Z,53238.45
2022-12-08T10:57:36.404Z,53245.46
2022-12-08T10:58:40.551Z,53234.44
2022-12-08T10:59:44.749Z,53260.49
2022-12-08T11:00:48.615Z,53233.43
2022-12-08T11:01:54.536Z,53230.43
2022-12-08T11:03:05.429Z,53220.41
2022-12-08T11:04:18.030Z,53220.41
2022-12-08T11:05:28.886Z,53220.41
2022-12-08T11:06:41.696Z,53218.40
2022-12-08T11:09:05.113Z,53214.39
2022-12-08T11:10:09.058Z,53229.43
2022-12-08T11:11:12.653Z,53214.39
2022-12-08T11:12:26.071Z,53252.48
2022-12-08T11:14:50.421Z,53224.41
2022-12-08T11:15:59.506Z,53208.38
2022-12-08T11:17:02.898Z,53224.41
2022-12-08T11:19:34.721Z,53240.45
2022-12-08T11:20:41.710Z,53240.45
2022-12-08T11:21:50.498Z,53229.43
2022-12-08T11:22:59.881Z,53225.42
2022-12-08T11:24:14.372Z,53225.42
2022-12-08T11:25:17.718Z,53251.47
2022-12-08T11:26:24.662Z,53226.42
2022-12-08T11:27:29.475Z,53242.45
2022-12-08T11:28:47.819Z,53255.48
2022-12-08T11:29:53.330Z,53257.48
2022-12-08T11:30:57.596Z,53270.51
2022-12-08T11:32:02.082Z,53307.59
2022-12-08T11:34:30.080Z,53306.59
2022-12-08T11:35:37.411Z,53297.57
2022-12-08T11:36:49.824Z,53307.59
2022-12-08T11:38:03.028Z,53271.52
2022-12-08T11:39:05.605Z,53330.64
2022-12-08T11:40:09.191Z,53282.54
2022-12-08T11:41:16.527Z,53290.55
2022-12-08T11:42:24.316Z,53284.54
2022-12-08T11:43:29.366Z,53300.57
2022-12-08T11:45:53.227Z,53327.63
2022-12-08T11:47:04.753Z,53320.62
2022-12-08T11:48:09.046Z,53354.69
2022-12-08T11:49:14.368Z,53364.71
2022-12-08T11:50:19.487Z,53374.73
2022-12-08T11:52:54.800Z,53345.67
2022-12-08T11:55:19.520Z,53359.70
2022-12-08T11:56:36.380Z,53320.62
2022-12-08T11:57:39.878Z,53329.64
2022-12-08T11:58:42.987Z,53356.70
2022-12-08T11:59:54.588Z,53315.61
2022-12-08T12:10:39.985Z,53274.52
2022-12-08T12:24:01.141Z,53335.65
2022-12-08T12:25:07.180Z,53320.62
2022-12-08T12:26:10.328Z,53371.73
2022-12-08T12:27:14.325Z,53346.67
2022-12-08T12:28:17.181Z,53330.64
2022-12-08T12:29:22.594Z,53376.74
2022-12-08T12:30:27.440Z,53350.68
2022-12-08T12:31:32.716Z,53368.72
2022-12-08T12:34:04.917Z,53423.84
2022-12-08T12:35:11.128Z,53400.79
2022-12-08T12:36:20.864Z,53351.68
2022-12-08T12:37:29.684Z,53399.79
2022-12-08T12:38:33.575Z,53360.70
2022-12-08T12:40:58.050Z,53346.67
2022-12-08T12:42:18.038Z,53368.72
2022-12-08T12:43:22.149Z,53396.78
2022-12-08T12:44:28.633Z,53417.82
2022-12-08T12:45:31.983Z,53416.82
2022-12-08T12:46:38.910Z,53466.93
2022-12-08T12:47:42.646Z,53451.90
2022-12-08T12:48:52.093Z,53415.82
2022-12-08T12:49:59.047Z,53438.87
2022-12-08T12:51:08.257Z,53400.79
2022-12-08T12:52:11.252Z,53435.86
2022-12-08T12:53:14.633Z,53433.86
2022-12-08T12:54:21.208Z,53443.88
2022-12-08T12:55:24.369Z,53469.94
2022-12-08T12:56:27.963Z,53476.95
2022-12-08T12:57:31.358Z,53526.06
2022-12-08T12:58:34.533Z,53546.10
2022-12-08T13:00:05.591Z,53554.12
2022-12-08T13:00:59.481Z,53537.08
2022-12-08T13:02:03.431Z,53484.97
2022-12-08T13:03:06.574Z,53480.96
2022-12-08T13:05:30.800Z,53400.79
2022-12-08T13:06:34.193Z,53406.80
2022-12-08T13:07:40.138Z,53409.81
2022-12-08T13:08:44.747Z,53396.78
2022-12-08T13:09:49.899Z,53425.84
2022-12-08T13:10:53.660Z,53414.82
2022-12-08T13:12:00.872Z,53444.88
2022-12-08T13:13:06.066Z,53442.88
2022-12-08T13:14:11.825Z,53454.91
2022-12-08T13:15:22.056Z,53500.00
2022-12-08T13:16:25.657Z,53491.98
2022-12-08T13:17:28.724Z,53484.97
2022-12-08T13:18:31.821Z,53471.94
2022-12-08T13:19:35.508Z,53542.09
2022-12-08T13:20:38.586Z,53550.11
2022-12-08T13:23:02.670Z,53587.19
2022-12-08T13:24:08.822Z,53582.18
2022-12-08T13:25:12.198Z,53591.20
2022-12-08T13:26:15.717Z,53594.21
2022-12-08T13:27:19.082Z,53615.25
2022-12-08T13:28:26.356Z,53615.25
2022-12-08T13:29:29.752Z,53640.31
2022-12-08T13:30:40.747Z,53636.30
2022-12-08T13:31:50.176Z,53644.32
2022-12-08T13:33:16.739Z,53660.35
2022-12-08T13:33:54.297Z,53697.43
2022-12-08T13:34:58.262Z,53711.46
2022-12-08T13:36:01.215Z,53721.49
2022-12-08T13:37:06.048Z,53712.47
2022-12-08T13:38:10.385Z,53767.59
2022-12-08T13:39:13.839Z,53782.62
2022-12-08T13:40:18.153Z,53800.66
2022-12-08T13:41:33.214Z,53800.66
2022-12-08T13:42:39.359Z,53815.70
2022-12-08T13:43:55.645Z,53847.77
2022-12-08T13:48:23.870Z,54078.29
2022-12-08T13:57:11.090Z,54214.61
2022-12-08T13:58:14.546Z,54258.71
2022-12-08T13:59:20.243Z,54267.74
2022-12-08T14:00:22.925Z,54219.62
2022-12-08T14:01:26.653Z,54110.37
2022-12-08T14:02:29.954Z,54109.37
2022-12-08T14:03:35.111Z,54016.15
2022-12-08T14:05:09.199Z,54066.27
2022-12-08T14:06:11.067Z,54059.25
2022-12-08T14:06:48.240Z,53992.10
2022-12-08T14:07:51.948Z,54014.15
2022-12-08T14:09:02.333Z,53969.04
2022-12-08T14:10:02.498Z,53906.90
2022-12-08T14:11:05.797Z,53881.85
2022-12-08T14:12:09.087Z,53803.67
2022-12-08T14:13:12.253Z,53770.60
2022-12-08T14:14:27.342Z,53781.62
2022-12-08T14:15:20.933Z,53687.41
2022-12-08T14:16:27.920Z,53715.47
2022-12-08T14:17:31.639Z,53701.44
2022-12-08T14:18:35.016Z,53666.37
2022-12-08T14:19:38.123Z,53655.34
2022-12-08T14:21:04.937Z,53634.29
2022-12-08T14:21:46.005Z,53624.27
2022-12-08T14:22:51.129Z,53665.36
2022-12-08T14:23:57.683Z,53786.63
2022-12-08T14:25:00.782Z,53878.84
2022-12-08T14:26:06.742Z,54072.28
2022-12-08T14:27:10.809Z,54172.51
2022-12-08T14:28:14.451Z,54266.73
2022-12-08T14:29:18.344Z,54403.06
2022-12-08T14:30:21.593Z,54546.40
2022-12-08T14:31:24.657Z,54705.79
2022-12-08T14:32:27.541Z,54810.05
2022-12-08T14:33:31.554Z,54960.43
2022-12-08T14:34:35.032Z,55220.09
2022-12-08T14:35:40.361Z,55537.93
2022-12-08T14:36:43.844Z,55784.60
2022-12-08T14:37:46.952Z,55851.79
2022-12-08T14:38:57.094Z,56031.28
2022-12-08T14:40:00.580Z,56263.94
2022-12-08T14:41:03.660Z,56404.34
2022-12-08T14:42:06.750Z,56544.75
2022-12-08T14:43:09.432Z,56663.10
2022-12-08T14:44:22.801Z,56800.51
2022-12-08T14:46:47.805Z,57064.31
2022-12-08T14:47:53.073Z,57190.70